Hurghada, Egyiptom

2016 Február 13 07:07 PM (EET időzóna) (GMT +0200)
Hurghada International | | Change Station
CLOSE
Current Station
Repülőtér
Location: Hurghada,
Elevation: 46 ft
Közeli meteorológiai állomások

Elev 46 ft 27.18 °N, 33.80 °E | Updated 1 hour ago

Clear
Derült
72 °F
Hőérzet 72 °F
N
2
Szél: változó Szél: from északi

Ma
High -- | Low -- °F
--% Csapadék valószínű
Tegnapi
High -- | Low -- °F
Precip. -- hvlyk.
Légnyomás 30.01 hvlyk.
Látótávolság -9999.0 mérföld
Felhők
Harmatpont 50 °F
Páratartalom 46%
Rainfall 0.00 hvlyk.
Hóréteg vastagsága Not available.
6:23 AM 5:35 PM
Növekvő holdsarló, 32% visible
METAR HEGN 131600Z 35002KT CAVOK 22/10 Q1016 NOSIG
Légnyomás 30.01 hvlyk.
Látótávolság -9999.0 mérföld
Felhők
Harmatpont 50 °F
Páratartalom 46%
Rainfall 0.00 hvlyk.
Hóréteg vastagsága Not available.
6:23 AM 5:35 PM
Növekvő holdsarló, 32% visible
METAR HEGN 131600Z 35002KT CAVOK 22/10 Q1016 NOSIG

10-Day Weather Forecast

No radar image for this location.
×

Almanac

Csillagászat

Feb. 13, 2016 Kel Nyugszik
Tényleges idő
Civil alkony
Tengerészeti alkony
Csillagászati alkony
Hold
Látható fény időtartama
A nap hossza
Tomorrow will be .
, % of the Moon is Illuminated

Today's Extremes

Country Highs Country Lows

Community

WunderPhotos

Upload Photos

1,892,611 Fotók feltöltve.

WunderBlog® & News

Nearby

A levegő minősége

  A levegő minősége AQ Index Szennyezőanyag
Not available.

Hóréteg vastagsága

Station Depth Elevation

Earthquake Activity

város Distance Mag. Time & Date
Minimum magnitude displayed is 2.5.

Coastal Water Temperatures

Hely Hőmérséklet

Stations

Közeli meteorológiai állomások

Station Location Hőm. Hőérzet Harmatpont Páratartalom Szél: Precip. Elev Frissítve Type